Note: Certified Weather is only available to Registered Users.
Weather Page Abbreviations
AirportCeilingVisibilityWind SpeedTempMETAR
KBID
GreenGreenGreenGreenKBID 230656Z AUTO 31009G16KT 10SM SCT034 03/M03 A3000 RMK AO2 SLP163 T00331033
METAR Reports
KBID 230656Z AUTO 31009G16KT 10SM SCT034 03/M03 A3000 RMK AO2 SLP163 T00331033
KBID 230556Z AUTO 32009G17KT 10SM BKN034 04/M03 A2999 RMK AO2 SLP160 T00391028 10061 20039 51015
KBID 230456Z AUTO 32010G16KT 10SM BKN036 04/M02 A2999 RMK AO2 SLP158 T00391022

Terminal Forecasts
View Plain Text

Forecast For KBID Not Found

Using Forecast For KPVD
KPVD 230525Z 2306/2406 31010G19KT P6SM SCT045
FM230900 30006KT P6SM FEW250


Recent NOTAMs (new or modified) from the last 12 hours
  No NOTAMs were submitted for KBID in the last 12 hours
NOTAMs
TFR Flight RestrictionsCheck Approach/Airway FDC Notams for: KBID  
(International notams may be incomplete)
BID 02/014 BID RWY 10/28 SAFETY AREA NOT STD SE 1702081504-PERM
BID 11/009 BID RWY 28 FICON 5/5/5 100 PCT WET OBS AT
            1711221143. 1711221143-1711231143
BID 11/008 BID RWY 10 FICON 5/5/5 100 PCT WET OBS AT
            1711221142. 1711221142-1711231142
BID 11/011 BID TWY ALL FICON WET OBSERVED AT 1711221144.
            1711221144-1711231144
BID 11/010 BID APRON ALL FICON WET OBSERVED AT 1711221143.
            1711221144-1711231144

Nearby Departure Airport METARs
KGON 230656Z AUTO 31007KT 10SM CLR 02/M06 A3001 RMK AO2 SLP163 T00171061
KPVD 230651Z 31012KT 10SM CLR 03/M04 A2999 RMK AO2 SLP155 T00281044
KEWB 230653Z AUTO 31005KT 10SM CLR 02/M03 A2996 RMK AO2 SLP145 T00221028
KSFZ 230656Z AUTO 31005KT 10SM SCT032 01/M04 A2997 RMK AO2 SLP096 T00061044
KMVY 230653Z AUTO 31011G16KT 10SM OVC032 04/M02 A2995 RMK AO2 SLP143 T00391017

KGON = GROTON-NEW LONDON GROTON CT
KMVY = MARTHAS VINEYARD VINEYARD HAV MA
KEWB = NEW BEDFORD RGNL NEW BEDFORD MA
KOQU = QUONSET STATE N.KINGSTOWN RI
KSFZ = NORTH CENTRAL STATE PAWTUCKET RI
KPVD = THEODORE FRANCIS GREEN STATE PROVIDENCE RI
GPS NOTAMs
 No GPS NOTAMs found